Time;durP1;ratioP1;P1;durP2;ratioP2;P2;SDS_P1;SDS_P2;PMS_P1;PMS_P2;Temp;Humidity;BMP_temperature;BMP_pressure;BME280_temperature;BME280_humidity;BME280_pressure;Samples;Min_cycle;Max_cycle;Signal;HPM_P1;HPM_P2
2023/06/01 00:00:55;;;;;;;7.97;3.10;;;15.60;99.90;;;;;;5027403;28;20804;-73
2023/06/01 00:03:22;;;;;;;10.10;3.90;;;15.50;99.90;;;;;;5027232;28;20481;-73
2023/06/01 00:05:48;;;;;;;8.32;3.45;;;15.50;99.90;;;;;;5025916;28;20415;-74
2023/06/01 00:08:13;;;;;;;10.37;3.60;;;15.40;99.90;;;;;;5041475;28;20401;-74
2023/06/01 00:10:40;;;;;;;8.38;3.33;;;15.50;99.90;;;;;;5046999;28;20506;-74
2023/06/01 00:13:06;;;;;;;9.60;3.72;;;15.50;99.90;;;;;;5038200;28;20406;-74
2023/06/01 00:15:31;;;;;;;9.23;3.43;;;15.50;99.90;;;;;;5049575;28;20380;-75
2023/06/01 00:17:57;;;;;;;8.30;3.80;;;15.40;99.90;;;;;;5050116;28;20438;-74
2023/06/01 00:20:24;;;;;;;8.20;3.40;;;15.40;99.90;;;;;;5043490;28;20876;-74
2023/06/01 00:22:50;;;;;;;8.88;3.50;;;15.30;99.90;;;;;;5029940;28;20433;-74
2023/06/01 00:25:15;;;;;;;11.67;3.93;;;15.20;99.90;;;;;;5029492;28;20395;-73
2023/06/01 00:27:41;;;;;;;7.60;2.90;;;15.10;99.90;;;;;;5027384;28;20407;-74
2023/06/01 00:30:07;;;;;;;8.52;3.88;;;15.00;99.90;;;;;;5028282;28;20792;-74
2023/06/01 00:32:32;;;;;;;8.60;3.60;;;14.90;99.90;;;;;;5029440;28;20408;-74
2023/06/01 00:34:58;;;;;;;11.27;3.40;;;14.90;99.90;;;;;;5030777;28;20395;-74
2023/06/01 00:37:23;;;;;;;9.07;3.30;;;14.90;99.90;;;;;;5031481;28;20411;-74
2023/06/01 00:39:49;;;;;;;10.23;3.50;;;15.00;99.90;;;;;;5031303;28;20550;-74
2023/06/01 00:42:15;;;;;;;9.90;2.90;;;14.90;99.90;;;;;;5032624;28;20430;-74
2023/06/01 00:44:40;;;;;;;9.68;3.60;;;14.90;99.90;;;;;;5033317;28;20394;-74
2023/06/01 00:47:07;;;;;;;9.70;3.10;;;15.00;99.90;;;;;;5032104;28;20469;-74
2023/06/01 00:49:33;;;;;;;7.57;3.40;;;15.00;99.90;;;;;;5033806;28;20383;-73
2023/06/01 00:51:59;;;;;;;9.90;2.85;;;14.90;99.90;;;;;;5034283;28;20475;-74
2023/06/01 00:54:25;;;;;;;10.70;3.10;;;14.90;99.90;;;;;;5036966;28;20456;-73
2023/06/01 00:56:52;;;;;;;9.90;3.30;;;14.80;99.90;;;;;;5036397;28;20465;-73
2023/06/01 00:59:17;;;;;;;9.60;3.40;;;14.80;99.90;;;;;;5036745;28;20431;-74
2023/06/01 01:01:43;;;;;;;7.97;3.10;;;14.70;99.90;;;;;;5038978;28;20433;-74
2023/06/01 01:04:10;;;;;;;9.90;3.30;;;14.80;99.90;;;;;;5040052;28;20399;-73
2023/06/01 01:07:20;;;;;;;9.38;3.20;;;14.70;99.90;;;;;;5037149;28;20411;-74
2023/06/01 01:09:56;;;;;;;12.90;3.40;;;14.60;99.90;;;;;;5034746;28;20414;-74
2023/06/01 01:12:30;;;;;;;9.20;3.08;;;14.60;99.90;;;;;;5034028;28;20883;-74
2023/06/01 01:15:12;;;;;;;7.65;2.95;;;14.70;99.90;;;;;;5034432;28;20503;-74
2023/06/01 01:17:42;;;;;;;9.80;3.30;;;14.70;99.90;;;;;;5033070;28;20490;-73
2023/06/01 01:20:33;;;;;;;8.40;2.95;;;14.60;99.90;;;;;;5031391;28;20840;-73
2023/06/01 01:23:30;;;;;;;9.95;3.30;;;14.60;99.90;;;;;;5030564;28;20519;-73
2023/06/01 01:26:30;;;;;;;7.82;2.83;;;14.60;99.90;;;;;;5030029;28;20484;-74
2023/06/01 01:29:00;;;;;;;7.85;2.95;;;14.50;99.90;;;;;;5033048;28;20418;-74
2023/06/01 01:31:26;;;;;;;10.10;2.95;;;14.50;99.90;;;;;;5033174;28;20504;-74
2023/06/01 01:33:55;;;;;;;7.80;3.15;;;14.40;99.90;;;;;;5032689;28;20491;-74
2023/06/01 01:36:22;;;;;;;8.70;3.03;;;14.40;99.90;;;;;;5031588;28;20407;-74
2023/06/01 01:38:47;;;;;;;8.18;3.20;;;14.40;99.90;;;;;;5045006;28;20413;-74
2023/06/01 01:41:13;;;;;;;9.40;3.00;;;14.30;99.90;;;;;;5040796;28;20389;-74
2023/06/01 01:43:39;;;;;;;9.30;2.90;;;14.30;99.90;;;;;;5044141;28;20442;-74
2023/06/01 01:46:26;;;;;;;8.35;3.50;;;14.30;99.90;;;;;;5038239;28;20775;-74
2023/06/01 01:48:57;;;;;;;10.30;3.13;;;14.40;99.90;;;;;;5032952;28;20475;-74
2023/06/01 01:51:36;;;;;;;8.80;2.80;;;14.40;99.90;;;;;;5030936;28;20411;-74
2023/06/01 01:54:06;;;;;;;8.07;2.87;;;14.30;99.90;;;;;;5031045;28;20509;-75
2023/06/01 01:56:33;;;;;;;6.37;2.70;;;14.20;99.90;;;;;;5029447;28;20934;-74
2023/06/01 01:59:00;;;;;;;7.85;3.03;;;14.10;99.90;;;;;;5031168;28;20544;-74
2023/06/01 02:01:25;;;;;;;8.70;3.40;;;14.10;99.90;;;;;;5030061;28;20406;-74
2023/06/01 02:04:01;;;;;;;8.75;3.20;;;14.10;99.90;;;;;;5029691;28;20539;-74
2023/06/01 02:06:27;;;;;;;9.27;3.57;;;14.00;99.90;;;;;;5029693;28;20402;-74
2023/06/01 02:08:52;;;;;;;11.10;3.00;;;14.00;99.90;;;;;;5030598;28;20391;-74
2023/06/01 02:11:18;;;;;;;8.50;3.77;;;13.90;99.90;;;;;;5016862;28;20404;-74
2023/06/01 02:13:43;;;;;;;9.97;3.80;;;13.90;99.90;;;;;;5010164;28;20400;-74
2023/06/01 02:16:09;;;;;;;8.10;3.20;;;13.90;99.90;;;;;;5017606;28;20710;-73
2023/06/01 02:18:39;;;;;;;8.85;3.33;;;13.90;99.90;;;;;;5027058;28;20522;-74
2023/06/01 02:21:05;;;;;;;10.50;3.38;;;13.80;1.00;;;;;;5026869;28;20418;-74
2023/06/01 02:23:31;;;;;;;8.90;3.22;;;13.90;1.00;;;;;;5029604;28;20503;-73
2023/06/01 02:25:57;;;;;;;11.50;3.80;;;13.90;1.00;;;;;;5028694;28;20407;-74
2023/06/01 02:28:24;;;;;;;10.10;3.20;;;13.90;1.00;;;;;;5027580;28;20815;-73
2023/06/01 02:30:51;;;;;;;7.07;3.38;;;13.80;1.00;;;;;;5029286;28;20446;-73
2023/06/01 02:33:17;;;;;;;11.23;3.70;;;13.70;1.00;;;;;;5028738;28;20399;-74
2023/06/01 02:35:42;;;;;;;8.73;3.70;;;13.80;1.00;;;;;;5029824;28;20395;-75
2023/06/01 02:38:08;;;;;;;9.40;3.30;;;13.80;1.00;;;;;;5028590;28;20562;-74
2023/06/01 02:40:33;;;;;;;9.20;3.50;;;13.70;1.00;;;;;;5028813;28;20410;-74
2023/06/01 02:42:59;;;;;;;8.23;3.80;;;13.70;1.00;;;;;;5029244;28;20574;-74
2023/06/01 02:45:24;;;;;;;8.10;3.40;;;13.70;1.00;;;;;;5028994;28;20729;-74
2023/06/01 02:47:50;;;;;;;10.23;3.30;;;13.60;1.00;;;;;;5028896;28;20379;-73
2023/06/01 02:50:17;;;;;;;7.40;3.30;;;13.60;1.00;;;;;;5027415;28;20398;-74
2023/06/01 02:52:43;;;;;;;8.43;3.70;;;13.60;1.00;;;;;;5027551;28;20858;-74
2023/06/01 02:55:08;;;;;;;8.40;3.40;;;13.60;1.00;;;;;;5027673;28;20724;-74
2023/06/01 02:57:34;;;;;;;8.43;3.42;;;13.60;1.00;;;;;;5027336;28;20415;-74
2023/06/01 02:59:59;;;;;;;8.90;3.43;;;13.60;1.00;;;;;;5013628;28;20420;-74
2023/06/01 03:02:26;;;;;;;10.70;3.50;;;13.60;1.00;;;;;;5022492;28;20494;-74
2023/06/01 03:04:53;;;;;;;7.57;3.60;;;13.50;1.00;;;;;;5028864;28;20470;-73
2023/06/01 03:07:18;;;;;;;9.85;3.05;;;13.50;1.00;;;;;;5028209;28;20395;-73
2023/06/01 03:09:44;;;;;;;12.30;3.90;;;13.40;1.00;;;;;;5020418;28;20415;-73
2023/06/01 03:12:10;;;;;;;8.98;3.17;;;13.40;1.00;;;;;;5027690;28;20407;-73
2023/06/01 03:14:36;;;;;;;9.57;4.10;;;13.40;1.00;;;;;;5026859;28;20533;-74
2023/06/01 03:17:01;;;;;;;8.48;3.20;;;13.40;1.00;;;;;;5028211;28;20406;-74
2023/06/01 03:19:29;;;;;;;13.40;3.80;;;13.30;1.00;;;;;;5026632;28;20469;-73
2023/06/01 03:21:56;;;;;;;6.90;2.83;;;13.30;1.00;;;;;;5027232;28;20414;-74
2023/06/01 03:24:25;;;;;;;10.85;3.80;;;13.40;1.00;;;;;;5027865;28;20724;-73
2023/06/01 03:26:51;;;;;;;9.10;3.33;;;13.40;1.00;;;;;;5026766;28;20487;-73
2023/06/01 03:29:17;;;;;;;8.85;3.38;;;13.40;1.00;;;;;;5027637;28;20488;-73
2023/06/01 03:31:43;;;;;;;9.25;3.90;;;13.40;1.00;;;;;;5037014;28;20472;-73
2023/06/01 03:34:08;;;;;;;11.20;3.50;;;13.40;1.00;;;;;;5027254;28;20442;-73
2023/06/01 03:36:36;;;;;;;9.67;3.00;;;13.40;1.00;;;;;;5027109;28;20419;-73
2023/06/01 03:39:07;;;;;;;8.43;3.30;;;13.40;1.00;;;;;;5028040;28;20756;-73
2023/06/01 03:41:34;;;;;;;7.88;3.08;;;13.40;1.00;;;;;;5027587;28;20423;-73
2023/06/01 03:44:00;;;;;;;8.07;3.67;;;13.30;98.00;;;;;;5026373;28;20475;-73
2023/06/01 03:46:26;;;;;;;9.47;3.40;;;13.40;46.40;;;;;;5038477;28;20791;-73
2023/06/01 03:48:51;;;;;;;9.90;3.20;;;13.50;32.30;;;;;;5027710;28;20465;-75
2023/06/01 03:51:17;;;;;;;7.97;3.20;;;13.50;69.80;;;;;;5025439;28;20418;-73
2023/06/01 03:53:43;;;;;;;10.15;3.75;;;13.50;64.40;;;;;;5035843;28;20429;-73
2023/06/01 03:56:08;;;;;;;10.83;2.80;;;13.50;72.50;;;;;;5037111;28;20783;-73
2023/06/01 03:58:34;;;;;;;8.15;3.50;;;13.40;99.90;;;;;;5026249;28;20407;-74
2023/06/01 04:01:00;;;;;;;7.80;3.00;;;13.50;99.90;;;;;;5032846;28;20407;-74
2023/06/01 04:03:26;;;;;;;8.65;3.10;;;13.60;69.30;;;;;;5031426;28;20991;-74
2023/06/01 04:05:58;;;;;;;8.95;2.92;;;13.60;58.40;;;;;;5048613;28;20398;-74
2023/06/01 04:08:27;;;;;;;11.98;3.20;;;13.60;95.60;;;;;;5032007;28;20422;-73
2023/06/01 04:10:53;;;;;;;8.57;3.40;;;13.70;99.90;;;;;;5030598;28;20412;-73
2023/06/01 04:13:18;;;;;;;11.75;3.53;;;13.70;99.90;;;;;;5025903;28;20406;-73
2023/06/01 04:15:46;;;;;;;7.60;3.40;;;13.70;64.50;;;;;;5025373;28;20399;-73
2023/06/01 04:18:11;;;;;;;10.90;3.93;;;13.70;31.60;;;;;;5035948;28;20901;-75
2023/06/01 04:20:37;;;;;;;12.50;4.40;;;13.80;6.30;;;;;;5047447;28;20388;-75
2023/06/01 04:23:02;;;;;;;10.20;3.97;;;13.90;33.90;;;;;;5044462;28;20482;-75
2023/06/01 04:25:28;;;;;;;13.20;5.27;;;13.90;99.90;;;;;;5027136;28;20503;-74
2023/06/01 04:27:55;;;;;;;9.03;3.53;;;14.00;99.90;;;;;;5026318;28;20407;-75
2023/06/01 04:30:23;;;;;;;7.53;3.10;;;14.10;28.40;;;;;;5041069;28;20444;-75
2023/06/01 04:32:50;;;;;;;14.27;4.80;;;14.10;1.00;;;;;;5045498;28;20427;-74
2023/06/01 04:35:16;;;;;;;9.25;3.70;;;14.30;1.00;;;;;;5032848;28;20887;-74
2023/06/01 04:37:42;;;;;;;12.00;5.70;;;14.40;1.00;;;;;;5025393;28;20431;-73
2023/06/01 04:40:10;;;;;;;8.70;3.47;;;14.60;1.00;;;;;;5023821;28;20409;-74
2023/06/01 04:42:55;;;;;;;11.45;4.15;;;14.80;1.00;;;;;;5026329;28;20595;-73
2023/06/01 04:45:21;;;;;;;9.20;4.18;;;15.00;1.00;;;;;;5019932;28;20404;-73
2023/06/01 04:47:46;;;;;;;11.47;4.00;;;15.30;1.00;;;;;;5032252;28;20421;-74
2023/06/01 04:50:12;;;;;;;11.00;3.90;;;15.50;1.00;;;;;;5024907;28;20401;-75
2023/06/01 04:52:39;;;;;;;9.45;4.30;;;15.70;1.00;;;;;;5018146;28;20404;-75
2023/06/01 04:55:06;;;;;;;10.38;4.60;;;16.20;99.90;;;;;;5025870;28;20414;-75
2023/06/01 04:57:33;;;;;;;9.70;3.77;;;16.90;99.90;;;;;;5024606;28;20439;-75
2023/06/01 05:00:00;;;;;;;8.63;3.42;;;18.10;99.90;;;;;;5007388;28;20418;-75
2023/06/01 05:02:26;;;;;;;8.90;3.85;;;19.00;99.90;;;;;;5020918;28;20432;-74
2023/06/01 05:04:52;;;;;;;9.37;3.70;;;19.80;99.90;;;;;;5018612;28;20418;-75
2023/06/01 05:07:17;;;;;;;9.70;3.50;;;20.30;99.90;;;;;;5035114;28;20502;-69
2023/06/01 05:09:43;;;;;;;8.75;3.55;;;20.90;99.90;;;;;;5032582;28;20505;-72
2023/06/01 05:12:08;;;;;;;9.45;3.67;;;21.50;99.90;;;;;;5039229;28;20815;-69
2023/06/01 05:14:34;;;;;;;11.02;3.80;;;22.20;1.00;;;;;;5031899;28;20449;-69
2023/06/01 05:17:00;;;;;;;10.55;3.60;;;22.30;1.00;;;;;;5030593;28;20429;-69
2023/06/01 05:19:25;;;;;;;8.33;2.80;;;22.50;99.90;;;;;;5034334;28;20439;-69
2023/06/01 05:21:51;;;;;;;8.10;3.00;;;23.20;99.90;;;;;;5038712;28;20427;-69
2023/06/01 05:24:18;;;;;;;8.50;3.08;;;24.30;99.90;;;;;;5030157;28;20402;-69
2023/06/01 05:26:45;;;;;;;8.83;2.83;;;25.20;99.90;;;;;;5029776;28;20589;-71
2023/06/01 05:29:11;;;;;;;7.88;3.05;;;25.20;99.90;;;;;;5029350;28;20579;-70
2023/06/01 05:31:37;;;;;;;8.50;2.90;;;25.20;99.90;;;;;;5027616;28;20514;-69
2023/06/01 05:34:02;;;;;;;10.32;3.65;;;25.70;99.90;;;;;;5028239;28;20419;-69
2023/06/01 05:36:28;;;;;;;8.45;3.22;;;26.10;99.90;;;;;;5030795;28;20386;-69
2023/06/01 05:38:54;;;;;;;7.00;2.43;;;26.90;99.90;;;;;;5029348;28;20391;-68
2023/06/01 05:41:19;;;;;;;7.33;3.10;;;27.50;99.90;;;;;;5028976;28;20382;-69
2023/06/01 05:43:45;;;;;;;10.23;3.20;;;27.80;99.90;;;;;;5029346;28;20444;-69
2023/06/01 05:46:10;;;;;;;11.57;3.58;;;28.00;99.90;;;;;;5028973;28;20529;-69
2023/06/01 05:48:36;;;;;;;9.50;3.50;;;28.60;99.90;;;;;;5028157;28;20435;-69
2023/06/01 05:51:02;;;;;;;8.23;3.10;;;28.40;99.90;;;;;;5030309;28;20441;-69
2023/06/01 05:53:27;;;;;;;8.18;3.15;;;28.80;99.90;;;;;;5030916;28;20411;-70
2023/06/01 05:55:54;;;;;;;8.00;3.10;;;28.20;99.90;;;;;;5029359;28;20505;-70
2023/06/01 05:58:20;;;;;;;8.55;3.22;;;28.60;99.90;;;;;;5028823;28;20402;-70
2023/06/01 06:00:46;;;;;;;8.45;3.00;;;28.70;99.90;;;;;;5027980;28;20399;-70
2023/06/01 06:03:12;;;;;;;9.65;3.30;;;29.50;99.90;;;;;;5027182;28;20427;-70
2023/06/01 06:05:37;;;;;;;12.20;3.30;;;29.60;99.90;;;;;;5024093;28;20421;-70
2023/06/01 06:08:03;;;;;;;11.30;3.37;;;29.90;99.90;;;;;;5028452;28;20395;-70
2023/06/01 06:10:28;;;;;;;8.63;3.40;;;30.00;99.90;;;;;;5029199;28;20422;-70
2023/06/01 06:12:55;;;;;;;9.43;3.40;;;29.60;99.90;;;;;;5029096;28;20751;-70
2023/06/01 06:15:20;;;;;;;10.65;3.20;;;29.90;99.90;;;;;;5040971;28;20463;-70
2023/06/01 06:17:47;;;;;;;11.20;3.40;;;30.10;99.90;;;;;;5045655;28;20406;-70
2023/06/01 06:20:15;;;;;;;8.57;3.63;;;30.10;99.90;;;;;;5038344;28;20415;-70
2023/06/01 06:22:42;;;;;;;8.87;3.37;;;29.70;99.90;;;;;;5031880;28;20433;-70
2023/06/01 06:25:08;;;;;;;7.90;3.00;;;28.50;99.90;;;;;;5030012;28;20480;-70
2023/06/01 06:27:34;;;;;;;8.73;3.20;;;27.60;99.90;;;;;;5028162;28;20442;-70
2023/06/01 06:30:00;;;;;;;7.70;3.25;;;27.60;99.90;;;;;;5029577;28;20439;-70
2023/06/01 06:32:25;;;;;;;7.40;3.33;;;28.90;99.90;;;;;;5029593;28;20387;-70
2023/06/01 06:34:51;;;;;;;8.47;3.40;;;29.40;99.90;;;;;;5028937;28;20403;-70
2023/06/01 06:37:16;;;;;;;8.38;3.50;;;29.80;99.90;;;;;;5028880;28;20453;-70
2023/06/01 06:39:43;;;;;;;7.93;3.80;;;29.90;99.90;;;;;;5029277;28;20407;-70
2023/06/01 06:42:09;;;;;;;9.75;3.60;;;30.10;99.90;;;;;;5033439;28;20441;-70
2023/06/01 06:44:35;;;;;;;9.68;3.22;;;30.30;99.90;;;;;;5035812;28;20419;-70
2023/06/01 06:47:00;;;;;;;8.07;3.13;;;30.60;99.90;;;;;;5030988;28;20401;-70
2023/06/01 06:49:26;;;;;;;8.95;3.28;;;29.80;99.90;;;;;;5028247;28;20413;-70
2023/06/01 06:51:52;;;;;;;8.13;3.50;;;29.30;99.90;;;;;;5028661;28;20430;-71
2023/06/01 06:54:19;;;;;;;9.63;4.60;;;29.40;99.90;;;;;;5026373;28;20548;-70
2023/06/01 06:56:45;;;;;;;7.78;3.63;;;29.70;99.90;;;;;;5027904;28;20748;-70
2023/06/01 06:59:11;;;;;;;7.50;3.40;;;29.70;99.90;;;;;;5029475;28;20409;-70
2023/06/01 07:01:37;;;;;;;9.47;3.33;;;29.80;99.90;;;;;;5020960;28;20455;-70
2023/06/01 07:04:06;;;;;;;9.13;3.30;;;30.30;99.90;;;;;;5026017;28;20434;-70
2023/06/01 07:06:33;;;;;;;8.95;3.10;;;30.50;99.90;;;;;;5026091;28;20510;-70
2023/06/01 07:08:59;;;;;;;8.57;3.35;;;32.00;99.90;;;;;;5026860;28;20387;-70
2023/06/01 07:11:26;;;;;;;8.88;3.20;;;32.30;99.90;;;;;;5026728;28;20831;-70
2023/06/01 07:13:52;;;;;;;8.40;3.40;;;31.80;99.90;;;;;;5028297;28;20490;-70
2023/06/01 07:16:18;;;;;;;9.30;2.90;;;31.00;99.90;;;;;;5027358;28;20411;-70
2023/06/01 07:18:43;;;;;;;8.40;2.80;;;31.40;99.90;;;;;;5027527;28;20489;-70
2023/06/01 07:21:09;;;;;;;8.70;3.40;;;31.70;99.90;;;;;;5026087;28;21114;-70
2023/06/01 07:23:35;;;;;;;11.50;3.07;;;31.30;99.90;;;;;;5027350;28;20920;-70
2023/06/01 07:26:01;;;;;;;10.15;3.28;;;30.70;99.90;;;;;;5027786;28;20812;-70
2023/06/01 07:28:27;;;;;;;8.68;3.50;;;30.40;99.90;;;;;;5027899;28;20403;-70
2023/06/01 07:30:53;;;;;;;8.47;3.00;;;31.00;99.90;;;;;;5026977;28;20422;-70
2023/06/01 07:33:19;;;;;;;8.80;3.10;;;31.70;99.90;;;;;;5027574;28;20397;-70
2023/06/01 07:35:45;;;;;;;8.43;3.42;;;31.70;99.90;;;;;;5030656;28;20494;-70
2023/06/01 07:38:11;;;;;;;7.07;3.20;;;31.20;99.90;;;;;;5031364;28;20393;-70
2023/06/01 07:40:37;;;;;;;8.20;3.70;;;32.50;99.90;;;;;;5046968;28;20501;-70
2023/06/01 07:43:02;;;;;;;9.20;3.60;;;33.20;99.90;;;;;;5038175;28;20501;-70
2023/06/01 07:45:28;;;;;;;7.20;2.70;;;33.00;99.90;;;;;;5030015;28;20410;-70
2023/06/01 07:47:54;;;;;;;9.30;4.17;;;32.60;99.90;;;;;;5027140;28;20391;-70
2023/06/01 07:50:19;;;;;;;9.00;3.03;;;32.50;99.90;;;;;;5027185;28;20417;-70
2023/06/01 07:52:45;;;;;;;8.27;3.60;;;32.80;99.90;;;;;;5026895;28;20865;-70
2023/06/01 07:55:11;;;;;;;11.60;4.10;;;33.20;99.90;;;;;;5037954;28;20418;-70
2023/06/01 07:57:37;;;;;;;8.60;3.57;;;32.90;99.90;;;;;;5039982;28;20420;-69
2023/06/01 08:00:09;;;;;;;8.07;3.58;;;32.60;99.90;;;;;;5015693;28;20429;-69
2023/06/01 08:02:35;;;;;;;8.88;3.70;;;32.60;99.90;;;;;;5011131;28;20486;-69
2023/06/01 08:05:02;;;;;;;8.73;3.00;;;32.30;99.90;;;;;;5009402;28;20393;-69
2023/06/01 08:07:30;;;;;;;8.65;3.97;;;33.00;99.90;;;;;;5020290;28;20394;-69
2023/06/01 08:09:57;;;;;;;8.80;3.40;;;33.50;99.90;;;;;;5026614;28;20406;-69
2023/06/01 08:12:23;;;;;;;10.13;3.65;;;34.20;99.90;;;;;;5026837;28;20492;-69
2023/06/01 08:14:48;;;;;;;10.90;3.60;;;33.70;99.90;;;;;;5027968;28;20410;-70
2023/06/01 08:17:14;;;;;;;10.90;3.80;;;33.20;99.90;;;;;;5027881;28;20423;-70
2023/06/01 08:19:43;;;;;;;8.63;3.60;;;33.50;99.90;;;;;;5027562;28;20481;-70
2023/06/01 08:22:09;;;;;;;9.70;4.00;;;34.00;99.90;;;;;;5010356;28;20490;-70
2023/06/01 08:24:35;;;;;;;9.32;3.65;;;34.00;99.90;;;;;;5027048;28;20498;-70
2023/06/01 08:27:04;;;;;;;10.60;3.50;;;34.30;99.90;;;;;;5027876;28;20402;-70
2023/06/01 08:29:31;;;;;;;9.50;4.30;;;35.10;99.90;;;;;;5027642;28;20403;-70
2023/06/01 08:31:59;;;;;;;9.30;4.38;;;36.00;99.90;;;;;;5027819;28;20433;-70
2023/06/01 08:34:25;;;;;;;8.33;3.70;;;37.00;99.90;;;;;;5027648;28;20942;-70
2023/06/01 08:36:50;;;;;;;10.23;4.40;;;37.20;99.90;;;;;;5031654;28;20415;-70
2023/06/01 08:39:23;;;;;;;9.73;3.92;;;37.10;99.90;;;;;;5032039;28;20491;-70
2023/06/01 08:42:24;;;;;;;8.75;4.10;;;36.80;99.90;;;;;;5030828;28;20411;-70
2023/06/01 08:44:58;;;;;;;9.35;4.20;;;36.50;99.90;;;;;;5031680;28;20918;-70
2023/06/01 08:47:28;;;;;;;8.30;4.05;;;35.50;99.90;;;;;;5028946;28;20755;-70
2023/06/01 08:49:57;;;;;;;10.00;4.40;;;35.40;99.90;;;;;;5030938;28;20421;-70
2023/06/01 08:52:28;;;;;;;7.80;3.83;;;36.20;99.90;;;;;;5028891;28;20417;-70
2023/06/01 08:54:54;;;;;;;9.95;4.32;;;36.00;99.90;;;;;;5030087;28;20752;-70
2023/06/01 08:57:20;;;;;;;10.82;4.70;;;35.70;99.90;;;;;;5029963;28;20433;-70
2023/06/01 08:59:46;;;;;;;7.90;3.60;;;36.30;99.90;;;;;;5029058;28;20399;-70
2023/06/01 09:02:13;;;;;;;10.63;4.03;;;36.10;99.90;;;;;;5034728;28;20489;-70
2023/06/01 09:04:42;;;;;;;9.38;3.70;;;35.80;99.90;;;;;;5036110;28;20461;-70
2023/06/01 09:07:08;;;;;;;10.30;3.60;;;35.20;99.90;;;;;;5028121;28;20437;-70
2023/06/01 09:09:33;;;;;;;11.87;3.90;;;35.40;99.90;;;;;;5032500;28;20422;-70
2023/06/01 09:12:24;;;;;;;9.07;3.67;;;35.30;99.90;;;;;;5033699;28;20399;-70
2023/06/01 09:14:50;;;;;;;10.60;4.57;;;35.60;99.90;;;;;;5029443;28;20410;-71
2023/06/01 09:17:23;;;;;;;10.05;4.20;;;36.40;99.90;;;;;;5029721;28;20488;-72
2023/06/01 09:19:54;;;;;;;8.90;3.70;;;36.50;99.90;;;;;;5030568;28;20440;-71
2023/06/01 09:22:20;;;;;;;9.00;3.77;;;36.40;99.90;;;;;;5030962;28;20433;-71
2023/06/01 09:24:59;;;;;;;11.20;4.27;;;36.00;99.90;;;;;;5030921;28;20391;-71
2023/06/01 09:27:26;;;;;;;10.53;4.43;;;35.90;99.90;;;;;;5033679;28;20876;-71
2023/06/01 09:29:55;;;;;;;10.18;3.90;;;36.10;99.90;;;;;;5038231;28;20403;-71
2023/06/01 09:32:21;;;;;;;10.02;4.07;;;36.50;99.90;;;;;;5034782;28;20457;-71
2023/06/01 09:34:47;;;;;;;8.87;3.90;;;36.60;99.90;;;;;;5031027;28;20883;-71
2023/06/01 09:37:13;;;;;;;13.27;4.43;;;37.20;99.90;;;;;;5030770;28;20452;-72
2023/06/01 09:39:39;;;;;;;12.70;4.05;;;37.60;99.90;;;;;;5029774;28;20402;-72
2023/06/01 09:42:06;;;;;;;8.83;4.40;;;37.70;99.90;;;;;;5030077;28;20760;-72
2023/06/01 09:44:39;;;;;;;8.50;3.83;;;37.50;99.90;;;;;;5030255;28;20395;-72
2023/06/01 09:47:09;;;;;;;12.32;4.03;;;36.80;99.90;;;;;;5029249;28;20470;-72
2023/06/01 09:49:41;;;;;;;8.55;4.10;;;36.60;99.90;;;;;;5036794;28;20426;-72
2023/06/01 09:52:12;;;;;;;8.98;4.60;;;36.80;99.90;;;;;;5032513;28;20860;-72
2023/06/01 09:54:45;;;;;;;10.85;4.55;;;37.40;99.90;;;;;;5030086;28;20461;-72
2023/06/01 09:57:12;;;;;;;12.13;4.18;;;36.70;99.90;;;;;;5029599;28;20391;-72
2023/06/01 09:59:46;;;;;;;8.90;4.22;;;36.90;99.90;;;;;;5044586;28;20899;-71
2023/06/01 10:02:19;;;;;;;11.48;4.70;;;36.10;99.90;;;;;;5028991;28;20473;-71
2023/06/01 10:04:49;;;;;;;11.77;4.40;;;35.40;99.90;;;;;;5030133;28;20383;-71
2023/06/01 10:07:16;;;;;;;7.35;3.70;;;34.30;99.90;;;;;;5029242;28;20392;-71
2023/06/01 10:09:48;;;;;;;9.95;4.90;;;34.30;99.90;;;;;;5029455;28;21078;-71
2023/06/01 10:12:14;;;;;;;9.95;4.93;;;34.80;99.90;;;;;;5029605;28;20395;-71
2023/06/01 10:14:40;;;;;;;11.70;4.88;;;35.00;99.90;;;;;;5029714;28;20387;-71
2023/06/01 10:17:07;;;;;;;9.13;4.70;;;34.80;99.90;;;;;;5029058;28;20403;-71
2023/06/01 10:19:35;;;;;;;10.75;4.80;;;34.80;99.90;;;;;;5029079;28;20486;-71
2023/06/01 10:22:03;;;;;;;9.63;4.65;;;34.80;99.90;;;;;;5028493;28;20748;-71
2023/06/01 10:24:29;;;;;;;9.50;4.80;;;35.20;99.90;;;;;;5034519;28;20423;-71
2023/06/01 10:27:22;;;;;;;9.30;4.30;;;35.70;99.90;;;;;;5038159;28;20379;-71
2023/06/01 10:29:48;;;;;;;9.25;4.50;;;34.10;99.90;;;;;;5030222;28;20395;-71
2023/06/01 10:32:45;;;;;;;10.13;4.10;;;32.80;99.90;;;;;;5029474;28;20685;-71
2023/06/01 10:35:33;;;;;;;10.07;4.32;;;32.90;99.90;;;;;;5029276;28;20387;-71
2023/06/01 10:38:14;;;;;;;13.77;4.70;;;32.60;99.90;;;;;;5029412;28;20457;-71
2023/06/01 10:40:43;;;;;;;9.77;4.60;;;31.60;99.90;;;;;;5029499;28;20415;-71
2023/06/01 10:43:35;;;;;;;8.73;4.20;;;31.20;99.90;;;;;;5029080;28;21363;-71
2023/06/01 10:46:01;;;;;;;9.38;4.00;;;31.30;99.90;;;;;;5046836;28;20398;-71
2023/06/01 10:49:06;;;;;;;8.40;4.00;;;31.60;99.90;;;;;;5041587;28;20471;-71
2023/06/01 10:51:32;;;;;;;9.20;4.00;;;31.50;99.90;;;;;;5006859;28;20433;-71
2023/06/01 10:54:33;;;;;;;9.52;4.40;;;31.30;99.90;;;;;;5007261;28;20480;-71
2023/06/01 10:57:21;;;;;;;12.15;4.50;;;31.40;99.90;;;;;;4981540;28;20410;-71
2023/06/01 11:00:28;;;;;;;17.15;4.80;;;31.10;99.90;;;;;;5026005;28;20494;-71
2023/06/01 11:02:59;;;;;;;9.47;4.20;;;30.10;99.90;;;;;;5028600;28;20472;-71
2023/06/01 11:05:43;;;;;;;9.85;4.20;;;30.40;99.90;;;;;;5028444;28;20387;-71
2023/06/01 11:08:29;;;;;;;9.48;4.63;;;30.50;99.90;;;;;;5028313;28;20430;-71
2023/06/01 11:11:06;;;;;;;10.77;4.80;;;30.80;99.90;;;;;;5028628;28;20844;-71
2023/06/01 11:13:31;;;;;;;9.98;4.80;;;30.50;99.90;;;;;;5028170;28;20435;-70
2023/06/01 11:16:21;;;;;;;8.80;4.30;;;30.50;99.90;;;;;;5031249;28;20877;-70
2023/06/01 11:18:58;;;;;;;10.60;4.57;;;30.20;99.90;;;;;;5027099;28;20411;-70
2023/06/01 11:21:37;;;;;;;8.68;4.15;;;30.40;99.90;;;;;;5028908;28;20482;-70
2023/06/01 11:24:11;;;;;;;9.27;4.18;;;30.70;99.90;;;;;;5028989;28;20536;-70
2023/06/01 11:26:48;;;;;;;8.75;4.30;;;30.30;99.90;;;;;;5028100;28;20495;-70
2023/06/01 11:29:16;;;;;;;12.68;4.30;;;30.60;99.90;;;;;;5028724;28;20609;-70
2023/06/01 11:31:45;;;;;;;8.82;4.10;;;30.50;99.90;;;;;;5028924;28;20402;-70
2023/06/01 11:34:12;;;;;;;11.10;4.30;;;30.60;99.90;;;;;;5029004;28;20965;-70
2023/06/01 11:36:42;;;;;;;8.38;4.20;;;30.50;99.90;;;;;;5028444;28;20422;-70
2023/06/01 11:39:22;;;;;;;10.70;4.07;;;30.50;99.90;;;;;;5028455;28;20419;-70
2023/06/01 11:41:49;;;;;;;13.68;4.53;;;30.70;99.90;;;;;;5027390;28;20403;-70
2023/06/01 11:44:15;;;;;;;10.43;4.40;;;30.10;99.90;;;;;;5027970;28;20426;-70
2023/06/01 11:46:54;;;;;;;10.30;3.80;;;29.70;99.90;;;;;;5028208;28;20398;-70
2023/06/01 11:49:20;;;;;;;9.18;3.95;;;30.10;99.90;;;;;;5028954;28;20407;-71
2023/06/01 11:51:46;;;;;;;9.00;3.72;;;30.50;99.90;;;;;;5029058;28;20474;-70
2023/06/01 11:54:12;;;;;;;9.50;4.70;;;30.60;99.90;;;;;;5031244;28;20387;-70
2023/06/01 11:56:41;;;;;;;9.60;4.30;;;30.40;99.90;;;;;;5031511;28;20761;-70
2023/06/01 11:59:09;;;;;;;10.90;4.28;;;29.80;99.90;;;;;;5028512;28;20487;-70
2023/06/01 12:01:43;;;;;;;10.15;3.83;;;28.80;99.90;;;;;;5026371;28;20399;-70
2023/06/01 12:04:23;;;;;;;10.65;4.38;;;28.80;99.90;;;;;;5028311;28;20427;-70
2023/06/01 12:06:49;;;;;;;13.55;4.65;;;29.10;99.90;;;;;;5027941;28;20399;-70
2023/06/01 12:09:16;;;;;;;10.77;4.30;;;29.50;99.90;;;;;;5025748;28;20409;-70
2023/06/01 12:11:44;;;;;;;10.35;4.30;;;30.00;99.90;;;;;;5026417;28;20415;-70
2023/06/01 12:14:11;;;;;;;10.38;4.18;;;30.20;99.90;;;;;;5027788;28;21037;-70
2023/06/01 12:17:01;;;;;;;8.00;3.70;;;30.00;99.90;;;;;;5027157;28;20410;-70
2023/06/01 12:19:28;;;;;;;12.25;4.47;;;30.30;99.90;;;;;;5026148;28;20407;-70
2023/06/01 12:21:55;;;;;;;10.60;4.15;;;30.50;99.90;;;;;;5029601;28;20403;-71
2023/06/01 12:24:29;;;;;;;9.80;4.07;;;30.60;99.90;;;;;;5026789;28;20486;-71
2023/06/01 12:26:57;;;;;;;9.30;4.00;;;30.50;99.90;;;;;;5014399;28;20421;-70
2023/06/01 12:29:47;;;;;;;9.82;4.10;;;30.00;99.90;;;;;;5014767;28;20846;-70
2023/06/01 12:32:15;;;;;;;8.93;4.00;;;29.90;99.90;;;;;;5016342;28;22604;-70
2023/06/01 12:34:47;;;;;;;9.40;3.60;;;29.80;99.90;;;;;;5023707;28;20425;-70
2023/06/01 12:37:17;;;;;;;9.38;3.85;;;30.10;99.90;;;;;;5020777;28;20941;-70
2023/06/01 12:39:43;;;;;;;8.87;4.00;;;30.50;99.90;;;;;;5023844;28;20465;-70
2023/06/01 12:42:11;;;;;;;8.93;3.72;;;30.70;99.90;;;;;;5027385;28;20403;-70
2023/06/01 12:44:37;;;;;;;8.90;3.37;;;30.70;99.90;;;;;;5021576;28;20411;-69
2023/06/01 12:47:03;;;;;;;11.20;4.20;;;30.70;99.90;;;;;;5014994;28;20395;-69
2023/06/01 12:49:29;;;;;;;10.47;4.20;;;30.70;99.90;;;;;;5023955;28;20407;-70
2023/06/01 12:51:55;;;;;;;9.60;4.47;;;30.40;99.90;;;;;;5016710;28;20916;-70
2023/06/01 12:54:21;;;;;;;8.07;4.07;;;30.50;99.90;;;;;;5021153;28;20452;-70